Time;durP1;ratioP1;P1;durP2;ratioP2;P2;SDS_P1;SDS_P2;PMS_P1;PMS_P2;Temp;Humidity;BMP_temperature;BMP_pressure;BME280_temperature;BME280_humidity;BME280_pressure;Samples;Min_cycle;Max_cycle;Signal;HPM_P1;HPM_P2
2022/05/21 00:02:12;;;;;;;13.77;2.70;;;13.40;99.90;;;;;;5023320;28;20017;-65
2022/05/21 00:04:41;;;;;;;17.65;2.65;;;13.40;99.90;;;;;;5024601;28;20060;-65
2022/05/21 00:07:08;;;;;;;14.88;2.10;;;13.40;99.90;;;;;;5026225;28;20208;-68
2022/05/21 00:09:34;;;;;;;19.00;2.78;;;13.40;99.90;;;;;;5042237;28;20025;-66
2022/05/21 00:12:00;;;;;;;17.40;2.33;;;13.40;99.90;;;;;;5042247;28;20319;-67
2022/05/21 00:14:25;;;;;;;19.23;3.13;;;13.30;99.90;;;;;;5025892;28;20026;-65
2022/05/21 00:16:51;;;;;;;17.52;2.17;;;13.30;99.90;;;;;;5009309;28;20116;-65
2022/05/21 00:19:17;;;;;;;17.08;2.03;;;13.30;99.90;;;;;;5042709;28;20089;-65
2022/05/21 00:21:43;;;;;;;13.15;2.25;;;13.30;99.90;;;;;;5043340;28;20029;-65
2022/05/21 00:24:08;;;;;;;23.13;3.10;;;13.30;99.90;;;;;;5008461;28;20033;-66
2022/05/21 00:26:35;;;;;;;20.55;2.63;;;13.20;99.90;;;;;;5043096;28;20294;-66
2022/05/21 00:29:01;;;;;;;23.27;4.18;;;13.20;99.90;;;;;;5041729;28;20026;-66
2022/05/21 00:31:27;;;;;;;21.15;4.03;;;13.20;99.90;;;;;;5008926;28;20362;-66
2022/05/21 00:33:52;;;;;;;19.13;2.50;;;13.20;99.90;;;;;;5025298;28;20049;-66
2022/05/21 00:36:19;;;;;;;17.77;2.75;;;13.20;99.90;;;;;;5025111;28;20189;-66
2022/05/21 00:38:45;;;;;;;19.13;2.90;;;13.10;99.90;;;;;;5040434;28;20032;-66
2022/05/21 00:41:13;;;;;;;20.02;3.60;;;13.10;99.90;;;;;;5032538;28;20022;-66
2022/05/21 00:43:57;;;;;;;18.00;3.08;;;13.10;99.90;;;;;;5026884;28;20034;-66
2022/05/21 00:46:29;;;;;;;19.95;3.03;;;13.10;99.90;;;;;;5009412;28;20025;-66
2022/05/21 00:49:02;;;;;;;20.98;2.67;;;13.10;99.90;;;;;;5025590;28;20061;-66
2022/05/21 00:51:30;;;;;;;24.15;3.00;;;13.10;99.90;;;;;;5009506;28;20221;-66
2022/05/21 00:54:00;;;;;;;21.80;2.63;;;13.10;99.90;;;;;;5025478;28;20052;-66
2022/05/21 00:56:28;;;;;;;20.27;3.20;;;13.10;99.90;;;;;;5025789;28;20313;-66
2022/05/21 01:01:44;;;;;;;20.55;3.05;;;13.00;99.90;;;;;;5011278;28;20096;-66
2022/05/21 01:04:10;;;;;;;22.25;2.65;;;13.00;99.90;;;;;;5025109;28;20359;-66
2022/05/21 01:06:36;;;;;;;20.58;3.10;;;13.00;99.90;;;;;;5043355;28;20029;-66
2022/05/21 01:09:02;;;;;;;24.73;3.03;;;13.00;99.90;;;;;;5028589;28;20029;-65
2022/05/21 01:11:28;;;;;;;18.33;2.63;;;13.00;99.90;;;;;;5046513;28;20033;-66
2022/05/21 01:13:54;;;;;;;17.48;2.63;;;13.00;99.90;;;;;;5046337;28;20201;-65
2022/05/21 01:16:21;;;;;;;23.48;3.30;;;13.00;99.90;;;;;;5046336;28;20022;-65
2022/05/21 01:18:47;;;;;;;29.05;2.88;;;12.90;99.90;;;;;;5045100;28;20033;-66
2022/05/21 01:21:12;;;;;;;22.05;2.85;;;13.00;99.90;;;;;;5046224;28;20067;-66
2022/05/21 01:23:38;;;;;;;17.20;2.72;;;12.90;99.90;;;;;;5044854;28;20072;-66
2022/05/21 01:26:10;;;;;;;20.10;3.25;;;13.00;99.90;;;;;;5028397;28;20021;-66
2022/05/21 01:28:37;;;;;;;21.02;3.53;;;12.90;99.90;;;;;;5012227;28;20029;-66
2022/05/21 01:31:03;;;;;;;25.85;4.65;;;12.90;99.90;;;;;;5045960;28;20339;-66
2022/05/21 01:33:32;;;;;;;20.75;3.85;;;12.90;99.90;;;;;;5027908;28;20033;-66
2022/05/21 01:35:59;;;;;;;19.63;3.03;;;12.90;99.90;;;;;;5044723;28;20251;-65
2022/05/21 01:38:27;;;;;;;14.20;2.95;;;12.90;99.90;;;;;;5044670;28;20043;-66
2022/05/21 01:40:53;;;;;;;26.25;3.88;;;12.90;99.90;;;;;;5037774;28;20022;-66
2022/05/21 01:46:05;;;;;;;23.25;3.05;;;12.90;99.90;;;;;;5011390;28;20021;-65
2022/05/21 01:48:33;;;;;;;28.13;3.25;;;12.90;99.90;;;;;;5025051;28;20073;-65
2022/05/21 01:50:59;;;;;;;27.83;3.42;;;12.80;99.90;;;;;;5008036;28;20284;-65
2022/05/21 01:53:26;;;;;;;16.42;2.47;;;12.90;99.90;;;;;;5024591;28;20078;-65
2022/05/21 01:55:53;;;;;;;21.40;2.92;;;12.80;99.90;;;;;;5008552;28;20026;-65
2022/05/21 01:58:19;;;;;;;22.40;3.17;;;12.80;99.90;;;;;;5008354;28;20297;-65
2022/05/21 02:00:45;;;;;;;24.52;2.67;;;12.90;99.90;;;;;;5023582;28;20303;-67
2022/05/21 02:03:13;;;;;;;24.95;2.80;;;12.90;99.90;;;;;;5007747;28;20220;-65
2022/05/21 02:05:39;;;;;;;19.77;3.50;;;12.90;99.90;;;;;;5017838;28;20047;-65
2022/05/21 02:08:06;;;;;;;18.70;3.40;;;12.80;99.90;;;;;;5044420;28;20322;-65
2022/05/21 02:10:33;;;;;;;24.45;3.03;;;12.80;99.90;;;;;;5044188;28;20025;-65
2022/05/21 02:13:02;;;;;;;16.98;2.25;;;12.80;99.90;;;;;;5044009;28;20049;-65
2022/05/21 02:15:28;;;;;;;23.92;2.92;;;12.70;99.90;;;;;;5043918;28;20029;-65
2022/05/21 02:17:54;;;;;;;19.17;2.92;;;12.70;99.90;;;;;;5027351;28;20022;-65
2022/05/21 02:20:20;;;;;;;24.65;3.10;;;12.70;99.90;;;;;;5045014;28;20045;-65
2022/05/21 02:22:46;;;;;;;26.95;4.05;;;12.60;99.90;;;;;;5043810;28;20446;-65
2022/05/21 02:25:14;;;;;;;19.33;3.05;;;12.60;99.90;;;;;;5045037;28;20300;-65
2022/05/21 02:27:41;;;;;;;23.08;3.20;;;12.60;99.90;;;;;;5045124;28;20021;-65
2022/05/21 02:30:07;;;;;;;15.50;2.75;;;12.60;99.90;;;;;;5043779;28;20093;-65
2022/05/21 02:32:32;;;;;;;18.70;2.78;;;12.60;99.90;;;;;;5043881;28;20197;-65
2022/05/21 02:34:58;;;;;;;24.02;3.58;;;12.60;99.90;;;;;;5043312;28;20051;-65
2022/05/21 02:40:09;;;;;;;19.02;3.47;;;12.60;99.90;;;;;;5039781;28;20021;-65
2022/05/21 02:42:50;;;;;;;35.25;3.22;;;12.60;99.90;;;;;;5024906;28;20075;-65
2022/05/21 02:45:19;;;;;;;23.23;3.58;;;12.60;99.90;;;;;;5009391;28;20301;-65
2022/05/21 02:47:45;;;;;;;23.35;2.75;;;12.50;99.90;;;;;;5023612;28;20093;-66
2022/05/21 02:50:13;;;;;;;26.75;3.70;;;12.50;99.90;;;;;;5006783;28;20281;-65
2022/05/21 02:52:38;;;;;;;23.05;2.92;;;12.50;99.90;;;;;;5024570;28;20026;-65
2022/05/21 02:55:06;;;;;;;24.08;3.28;;;12.50;99.90;;;;;;5024936;28;20048;-65
2022/05/21 02:57:32;;;;;;;23.27;2.72;;;12.60;99.90;;;;;;5023680;28;20281;-65
2022/05/21 03:00:03;;;;;;;24.35;2.67;;;12.60;99.90;;;;;;5023165;28;20058;-65
2022/05/21 03:02:29;;;;;;;;;;;12.50;99.90;;;;;;5023747;28;20032;-65
2022/05/21 03:04:54;;;;;;;21.08;2.90;;;12.60;99.90;;;;;;5027666;28;19912;-65
2022/05/21 03:07:20;;;;;;;29.30;4.20;;;12.60;99.90;;;;;;5044355;28;20021;-65
2022/05/21 03:12:31;;;;;;;20.15;3.08;;;12.60;99.90;;;;;;5043195;28;20248;-65
2022/05/21 03:14:57;;;;;;;24.75;3.25;;;12.50;99.90;;;;;;5043857;28;20034;-65
2022/05/21 03:17:26;;;;;;;22.15;3.05;;;12.50;99.90;;;;;;5043117;28;20025;-65
2022/05/21 03:19:52;;;;;;;18.17;2.70;;;12.50;99.90;;;;;;5043879;28;20022;-65
2022/05/21 03:22:18;;;;;;;21.10;3.15;;;12.50;99.90;;;;;;5043920;28;20055;-65
2022/05/21 03:24:44;;;;;;;18.50;3.30;;;12.50;99.90;;;;;;5042589;28;20041;-65
2022/05/21 03:27:10;;;;;;;21.27;3.20;;;12.50;99.90;;;;;;5026336;28;20025;-65
2022/05/21 03:29:37;;;;;;;18.10;3.40;;;12.50;99.90;;;;;;5009816;28;20363;-66
2022/05/21 03:32:03;;;;;;;19.40;3.17;;;12.40;99.90;;;;;;5042326;28;20025;-65
2022/05/21 03:34:29;;;;;;;23.83;3.40;;;12.40;99.90;;;;;;5041977;28;20045;-65
2022/05/21 03:36:55;;;;;;;25.77;3.15;;;12.40;99.90;;;;;;5042225;28;20048;-65
2022/05/21 03:39:21;;;;;;;19.83;2.72;;;12.40;99.90;;;;;;5042571;28;20029;-65
2022/05/21 03:41:46;;;;;;;26.45;3.35;;;12.30;99.90;;;;;;5026653;28;20037;-65
2022/05/21 03:44:12;;;;;;;16.48;3.45;;;12.30;99.90;;;;;;5022694;28;20041;-65
2022/05/21 03:46:38;;;;;;;24.17;3.47;;;12.30;99.90;;;;;;5006190;28;20058;-65
2022/05/21 03:49:05;;;;;;;29.50;3.55;;;12.30;99.90;;;;;;5022566;28;20026;-65
2022/05/21 03:51:31;;;;;;;21.00;2.78;;;12.20;99.90;;;;;;5006368;28;20236;-64
2022/05/21 03:53:57;;;;;;;24.38;3.47;;;12.30;99.90;;;;;;5006149;28;20033;-65
2022/05/21 03:56:22;;;;;;;26.95;3.28;;;12.30;99.90;;;;;;5022594;28;20053;-65
2022/05/21 03:58:48;;;;;;;28.95;3.72;;;12.20;99.90;;;;;;5023729;28;20048;-65
2022/05/21 04:01:14;;;;;;;24.45;3.45;;;12.30;99.90;;;;;;5023694;28;20081;-65
2022/05/21 04:03:41;;;;;;;25.70;3.92;;;12.20;99.90;;;;;;5005261;28;20042;-65
2022/05/21 04:06:07;;;;;;;25.13;3.20;;;12.20;99.90;;;;;;5023649;28;20045;-66
2022/05/21 04:08:33;;;;;;;24.25;2.90;;;12.20;99.90;;;;;;5023670;28;20316;-65
2022/05/21 04:10:59;;;;;;;26.45;2.58;;;12.20;99.90;;;;;;5023549;28;20037;-66
2022/05/21 04:13:26;;;;;;;20.42;2.80;;;12.20;99.90;;;;;;5022119;28;20025;-65
2022/05/21 04:15:51;;;;;;;26.17;2.67;;;12.10;99.90;;;;;;5024007;28;20160;-66
2022/05/21 04:18:18;;;;;;;27.85;3.53;;;12.10;99.90;;;;;;5012346;28;20316;-65
2022/05/21 04:20:44;;;;;;;21.88;3.20;;;12.00;99.90;;;;;;5030022;28;20030;-65
2022/05/21 04:23:10;;;;;;;28.55;4.00;;;12.00;99.90;;;;;;5011473;28;20109;-65
2022/05/21 04:25:36;;;;;;;27.55;3.20;;;11.90;99.90;;;;;;5030124;28;20061;-65
2022/05/21 04:28:02;;;;;;;26.35;3.63;;;12.00;99.90;;;;;;5028924;28;20085;-65
2022/05/21 04:30:29;;;;;;;28.65;3.95;;;12.00;99.90;;;;;;5030130;28;20026;-65
2022/05/21 04:32:57;;;;;;;27.58;3.33;;;12.00;99.90;;;;;;5028202;28;20026;-65
2022/05/21 04:35:25;;;;;;;25.05;3.45;;;12.00;99.90;;;;;;5028630;28;20026;-65
2022/05/21 04:37:50;;;;;;;17.55;3.83;;;12.00;99.90;;;;;;5028648;28;20036;-65
2022/05/21 04:40:19;;;;;;;32.30;3.47;;;12.00;99.90;;;;;;5028497;28;20305;-65
2022/05/21 04:42:44;;;;;;;25.63;3.80;;;12.00;99.90;;;;;;5027536;28;20202;-65
2022/05/21 04:45:11;;;;;;;20.60;3.83;;;12.10;99.90;;;;;;5012362;28;20037;-65
2022/05/21 04:47:37;;;;;;;25.42;3.58;;;12.10;99.90;;;;;;5028576;28;20018;-65
2022/05/21 04:50:04;;;;;;;27.33;3.40;;;12.10;99.90;;;;;;5028543;28;20228;-65
2022/05/21 04:52:30;;;;;;;27.45;4.13;;;12.10;99.90;;;;;;5028591;28;20289;-66
2022/05/21 04:54:56;;;;;;;23.80;3.72;;;12.10;99.90;;;;;;5029537;28;20096;-66
2022/05/21 04:57:21;;;;;;;28.42;3.47;;;12.20;99.90;;;;;;5029779;28;20236;-66
2022/05/21 04:59:47;;;;;;;21.00;3.35;;;12.20;99.90;;;;;;5029491;28;20017;-66
2022/05/21 05:02:13;;;;;;;29.65;3.63;;;12.20;99.90;;;;;;5012102;28;20121;-65
2022/05/21 05:04:39;;;;;;;26.10;3.30;;;12.20;99.90;;;;;;5029781;28;20037;-65
2022/05/21 05:07:07;;;;;;;30.15;3.65;;;12.30;99.90;;;;;;5031522;28;20120;-66
2022/05/21 05:09:43;;;;;;;30.05;3.92;;;12.20;99.90;;;;;;5048413;28;20024;-65
2022/05/21 05:12:09;;;;;;;29.55;3.80;;;12.20;99.90;;;;;;5049037;28;20021;-66
2022/05/21 05:14:36;;;;;;;28.00;4.45;;;12.30;99.90;;;;;;5015117;28;20219;-66
2022/05/21 05:17:03;;;;;;;23.75;5.93;;;12.40;99.90;;;;;;5031637;28;20059;-65
2022/05/21 05:19:30;;;;;;;29.35;5.28;;;12.30;99.90;;;;;;5049280;28;20023;-66
2022/05/21 05:21:57;;;;;;;22.40;4.35;;;12.40;99.90;;;;;;5048426;28;20017;-65
2022/05/21 05:24:23;;;;;;;25.48;4.32;;;12.50;99.90;;;;;;5047532;28;20062;-66
2022/05/21 05:26:48;;;;;;;22.80;3.25;;;12.50;99.90;;;;;;5048815;28;20232;-66
2022/05/21 05:29:14;;;;;;;27.58;3.67;;;12.50;99.90;;;;;;5012745;28;20320;-66
2022/05/21 05:31:39;;;;;;;29.90;3.42;;;12.40;99.90;;;;;;5028402;28;20343;-66
2022/05/21 05:34:05;;;;;;;21.23;2.92;;;12.50;99.90;;;;;;5045415;28;20021;-66
2022/05/21 05:36:31;;;;;;;21.40;4.18;;;12.50;99.90;;;;;;5045975;28;20032;-66
2022/05/21 05:38:59;;;;;;;27.02;4.78;;;12.50;99.90;;;;;;5045845;28;20029;-66
2022/05/21 05:41:27;;;;;;;27.77;3.25;;;12.50;99.90;;;;;;5031962;28;20093;-66
2022/05/21 05:43:54;;;;;;;19.83;3.40;;;12.60;99.90;;;;;;5024665;28;20076;-66
2022/05/21 05:46:19;;;;;;;29.13;3.42;;;12.70;99.90;;;;;;5008408;28;20371;-66
2022/05/21 05:48:45;;;;;;;19.73;2.75;;;12.80;99.90;;;;;;5024375;28;20029;-66
2022/05/21 05:51:11;;;;;;;21.85;3.42;;;13.00;99.90;;;;;;5008392;28;20026;-66
2022/05/21 05:53:36;;;;;;;18.15;2.65;;;13.10;99.90;;;;;;5008084;28;20018;-65
2022/05/21 05:56:06;;;;;;;18.70;2.97;;;13.20;99.90;;;;;;5024755;28;20089;-66
2022/05/21 06:01:19;;;;;;;15.10;2.35;;;13.30;99.90;;;;;;5010985;28;20344;-66
2022/05/21 06:03:45;;;;;;;19.75;2.63;;;13.40;99.90;;;;;;5024849;28;20026;-66
2022/05/21 06:06:10;;;;;;;14.07;2.33;;;13.40;99.90;;;;;;5010147;28;20037;-66
2022/05/21 06:08:36;;;;;;;19.95;3.10;;;13.50;99.90;;;;;;5004872;28;20026;-66
2022/05/21 06:11:02;;;;;;;19.58;2.70;;;13.50;99.90;;;;;;5005015;28;20026;-66
2022/05/21 06:13:28;;;;;;;17.38;2.38;;;13.60;99.90;;;;;;5004294;28;20023;-66
2022/05/21 06:15:54;;;;;;;19.80;3.08;;;13.50;99.90;;;;;;5004991;28;20081;-66
2022/05/21 06:18:20;;;;;;;23.90;3.00;;;13.50;99.90;;;;;;5004776;28;20026;-66
2022/05/21 06:20:48;;;;;;;20.88;2.90;;;13.70;99.90;;;;;;5004382;28;20094;-66
2022/05/21 06:23:15;;;;;;;18.90;3.03;;;13.80;99.90;;;;;;5004208;28;20058;-66
2022/05/21 06:25:41;;;;;;;16.83;2.45;;;13.90;99.90;;;;;;5005711;28;20035;-65
2022/05/21 06:28:07;;;;;;;19.08;3.00;;;13.90;99.90;;;;;;5004425;28;20026;-66
2022/05/21 06:30:35;;;;;;;16.50;2.95;;;14.10;99.90;;;;;;5005820;28;20050;-66
2022/05/21 06:33:19;;;;;;;17.52;2.95;;;14.20;99.90;;;;;;5005420;28;20045;-66
2022/05/21 06:35:46;;;;;;;12.98;2.53;;;14.40;99.90;;;;;;5004362;28;20027;-66
2022/05/21 06:38:12;;;;;;;24.95;2.65;;;14.50;99.90;;;;;;5004565;28;20241;-66
2022/05/21 06:40:38;;;;;;;18.85;2.50;;;14.60;99.90;;;;;;5010891;28;20018;-66
2022/05/21 06:43:04;;;;;;;17.63;2.85;;;14.70;99.70;;;;;;5006178;28;20036;-66
2022/05/21 06:45:32;;;;;;;20.77;2.63;;;14.90;99.60;;;;;;5023707;28;20025;-66
2022/05/21 06:48:07;;;;;;;18.92;2.80;;;15.00;99.10;;;;;;5023471;28;20026;-66
2022/05/21 06:50:33;;;;;;;16.50;2.50;;;15.00;99.10;;;;;;5024724;28;20022;-66
2022/05/21 06:52:59;;;;;;;16.90;2.47;;;15.00;99.00;;;;;;5023449;28;20354;-66
2022/05/21 06:55:26;;;;;;;22.38;3.10;;;15.10;99.30;;;;;;5023282;28;20076;-66
2022/05/21 06:57:52;;;;;;;21.38;2.97;;;15.10;99.10;;;;;;5024895;28;20022;-66
2022/05/21 07:00:21;;;;;;;20.42;2.63;;;15.10;98.80;;;;;;5006681;28;20320;-66
2022/05/21 07:02:48;;;;;;;20.58;2.90;;;15.00;98.90;;;;;;5022971;28;20022;-66
2022/05/21 07:08:02;;;;;;;20.17;2.97;;;15.00;98.90;;;;;;5043587;28;20185;-66
2022/05/21 07:10:29;;;;;;;27.20;2.78;;;15.10;98.90;;;;;;5026245;28;20031;-66
2022/05/21 07:12:55;;;;;;;18.67;2.40;;;15.20;98.80;;;;;;5043773;28;20055;-66
2022/05/21 07:15:21;;;;;;;18.92;3.03;;;15.40;98.20;;;;;;5044029;28;20208;-66
2022/05/21 07:17:48;;;;;;;15.40;2.75;;;15.40;98.20;;;;;;5042739;28;20026;-66
2022/05/21 07:20:16;;;;;;;17.23;2.67;;;15.40;97.90;;;;;;5026613;28;20212;-66
2022/05/21 07:22:44;;;;;;;16.00;4.07;;;15.40;98.20;;;;;;5026591;28;20033;-66
2022/05/21 07:25:12;;;;;;;24.42;3.53;;;15.50;98.30;;;;;;5042567;28;20128;-66
2022/05/21 07:27:38;;;;;;;21.45;3.13;;;15.60;98.10;;;;;;5043958;28;20029;-66
2022/05/21 07:30:05;;;;;;;20.85;2.40;;;15.70;97.60;;;;;;5043823;28;20037;-66
2022/05/21 07:32:30;;;;;;;16.30;2.85;;;15.80;97.40;;;;;;5043517;28;20040;-66
2022/05/21 07:34:59;;;;;;;15.25;2.75;;;15.80;97.40;;;;;;5043334;28;20025;-66
2022/05/21 07:37:25;;;;;;;16.58;3.25;;;15.70;97.00;;;;;;5043833;28;20029;-66
2022/05/21 07:39:51;;;;;;;13.38;2.35;;;15.60;97.40;;;;;;5042379;28;20017;-66
2022/05/21 07:42:16;;;;;;;21.00;2.75;;;15.60;97.60;;;;;;5023960;28;20030;-66
2022/05/21 07:44:42;;;;;;;21.33;3.13;;;15.50;97.50;;;;;;5020512;28;20026;-66
2022/05/21 07:47:08;;;;;;;18.10;2.13;;;15.60;97.50;;;;;;5023655;28;20030;-67
2022/05/21 07:49:34;;;;;;;17.88;2.50;;;15.60;97.30;;;;;;5023846;28;20024;-67
2022/05/21 07:52:00;;;;;;;16.75;2.70;;;15.50;97.10;;;;;;5022047;28;20025;-67
2022/05/21 07:54:27;;;;;;;19.58;2.22;;;15.40;97.10;;;;;;5023194;28;20022;-67
2022/05/21 07:56:53;;;;;;;20.17;2.95;;;15.40;97.60;;;;;;5022561;28;20225;-65
2022/05/21 07:59:19;;;;;;;14.60;2.00;;;15.50;97.00;;;;;;5022733;28;20240;-66
2022/05/21 08:01:44;;;;;;;14.27;2.42;;;15.60;97.10;;;;;;5023632;28;20128;-67
2022/05/21 08:04:10;;;;;;;19.40;2.58;;;15.60;97.00;;;;;;5005297;28;20049;-67
2022/05/21 08:06:36;;;;;;;16.15;2.50;;;15.60;97.20;;;;;;5041534;28;20029;-67
2022/05/21 08:09:02;;;;;;;12.77;2.10;;;15.70;96.80;;;;;;5042104;28;20021;-67
2022/05/21 08:11:28;;;;;;;15.57;2.40;;;15.70;96.80;;;;;;5042289;28;20026;-67
2022/05/21 08:13:54;;;;;;;15.32;2.90;;;15.80;96.80;;;;;;5025637;28;20026;-66
2022/05/21 08:16:20;;;;;;;13.57;2.00;;;15.80;96.70;;;;;;5041744;28;20044;-66
2022/05/21 08:18:45;;;;;;;13.32;2.53;;;15.80;97.00;;;;;;5043373;28;20085;-67
2022/05/21 08:21:11;;;;;;;15.50;2.28;;;15.70;96.70;;;;;;5042184;28;20369;-67
2022/05/21 08:29:11;;;;;;;13.30;2.30;;;15.70;96.70;;;;;;5028236;28;20025;-66
2022/05/21 08:31:37;;;;;;;19.92;2.38;;;15.70;96.80;;;;;;5025782;28;20052;-67
2022/05/21 08:34:03;;;;;;;18.08;2.30;;;15.80;96.60;;;;;;5042663;28;20375;-65
2022/05/21 08:36:28;;;;;;;15.18;2.28;;;15.80;96.40;;;;;;5041775;28;20297;-68
2022/05/21 08:38:54;;;;;;;12.52;2.35;;;16.00;96.70;;;;;;5042130;28;20017;-68
2022/05/21 08:41:30;;;;;;;14.30;2.55;;;16.20;96.30;;;;;;5013276;28;20022;-66
2022/05/21 08:44:04;;;;;;;13.85;2.22;;;16.10;95.90;;;;;;5020341;28;20076;-66
2022/05/21 08:46:37;;;;;;;7.68;2.00;;;16.10;95.80;;;;;;5022898;28;20178;-67
2022/05/21 08:49:14;;;;;;;22.73;3.13;;;16.20;95.70;;;;;;5005648;28;20022;-67
2022/05/21 08:51:48;;;;;;;16.02;2.22;;;16.30;95.90;;;;;;5023010;28;20081;-67
2022/05/21 08:54:19;;;;;;;13.93;1.83;;;16.20;95.40;;;;;;5021705;28;20026;-67
2022/05/21 08:56:44;;;;;;;13.88;2.28;;;16.20;95.60;;;;;;5022891;28;20021;-67
2022/05/21 08:59:11;;;;;;;14.80;2.72;;;16.50;95.50;;;;;;5022942;28;20129;-67
2022/05/21 09:01:40;;;;;;;11.10;2.25;;;16.50;94.90;;;;;;5021559;28;20057;-67
2022/05/21 09:04:06;;;;;;;12.05;2.22;;;16.50;94.90;;;;;;5007627;28;20030;-67
2022/05/21 09:06:41;;;;;;;12.15;2.30;;;16.60;94.80;;;;;;5008949;28;20025;-67
2022/05/21 09:09:21;;;;;;;10.98;2.30;;;16.60;94.60;;;;;;5026876;28;20086;-67
2022/05/21 09:11:52;;;;;;;18.17;3.05;;;16.60;94.60;;;;;;5025632;28;20292;-67
2022/05/21 09:14:42;;;;;;;15.00;2.17;;;16.60;94.80;;;;;;5025694;28;20018;-67
2022/05/21 09:17:15;;;;;;;18.25;2.30;;;16.70;95.00;;;;;;5009006;28;20022;-67
2022/05/21 09:19:47;;;;;;;14.30;2.05;;;16.70;94.40;;;;;;5025249;28;20029;-67
2022/05/21 09:22:15;;;;;;;20.73;2.85;;;16.50;94.40;;;;;;5008872;28;20028;-67
2022/05/21 09:24:49;;;;;;;13.98;2.22;;;16.50;94.30;;;;;;5025224;28;20209;-67
2022/05/21 09:27:36;;;;;;;11.88;1.95;;;16.60;94.80;;;;;;5026252;28;20032;-66
2022/05/21 09:30:23;;;;;;;11.52;2.72;;;16.60;93.90;;;;;;5011148;28;20037;-67
2022/05/21 09:32:53;;;;;;;13.65;2.53;;;16.60;93.90;;;;;;5008341;28;20032;-67
2022/05/21 09:35:23;;;;;;;11.20;2.70;;;16.30;94.50;;;;;;5024674;28;20064;-67
2022/05/21 09:37:49;;;;;;;19.70;2.55;;;16.10;95.00;;;;;;5025064;28;20087;-65
2022/05/21 09:40:35;;;;;;;13.10;2.30;;;16.10;94.90;;;;;;5026219;28;20022;-68
2022/05/21 09:46:27;;;;;;;17.30;2.40;;;16.50;93.90;;;;;;5009822;28;20030;-65
2022/05/21 09:48:55;;;;;;;21.30;3.28;;;16.90;93.10;;;;;;5024691;28;20026;-66
2022/05/21 09:51:29;;;;;;;15.77;2.97;;;17.00;92.90;;;;;;5026089;28;20025;-68
2022/05/21 09:53:55;;;;;;;15.15;2.03;;;17.10;91.80;;;;;;5008465;28;20022;-67
2022/05/21 09:56:23;;;;;;;15.45;3.20;;;17.00;91.80;;;;;;5008335;28;20140;-67
2022/05/21 09:58:52;;;;;;;17.10;2.13;;;16.90;92.40;;;;;;5008486;28;20047;-67
2022/05/21 10:01:40;;;;;;;15.32;2.30;;;16.80;92.50;;;;;;5008020;28;20076;-68
2022/05/21 10:04:27;;;;;;;15.27;2.47;;;16.60;92.00;;;;;;5007450;28;20044;-65
2022/05/21 10:13:06;;;;;;;19.17;3.28;;;16.30;92.40;;;;;;5005125;28;20025;-67
2022/05/21 10:15:39;;;;;;;18.20;2.85;;;16.40;92.50;;;;;;5003857;28;20225;-67
2022/05/21 10:18:30;;;;;;;14.88;3.17;;;16.40;92.50;;;;;;5004864;28;20014;-66
2022/05/21 10:21:08;;;;;;;15.10;2.13;;;16.50;91.70;;;;;;5007469;28;20149;-66
2022/05/21 10:23:40;;;;;;;11.52;2.30;;;16.60;91.50;;;;;;4988460;28;20042;-68
2022/05/21 10:26:42;;;;;;;9.82;1.83;;;16.80;91.40;;;;;;5004768;28;20110;-67
2022/05/21 10:29:47;;;;;;;12.20;2.35;;;16.90;91.30;;;;;;5004927;28;20026;-67
2022/05/21 10:32:46;;;;;;;15.18;2.35;;;17.10;91.30;;;;;;5004488;28;20033;-68
2022/05/21 10:35:51;;;;;;;11.85;1.58;;;17.30;90.80;;;;;;5004593;28;20097;-69
2022/05/21 10:38:54;;;;;;;12.18;2.40;;;17.30;89.20;;;;;;5004834;28;20026;-68
2022/05/21 10:41:41;;;;;;;13.68;1.90;;;17.40;90.40;;;;;;5016428;28;20351;-66
2022/05/21 10:44:43;;;;;;;12.50;1.85;;;17.50;88.50;;;;;;5025582;28;20037;-66
2022/05/21 10:47:26;;;;;;;17.35;1.98;;;17.40;88.90;;;;;;5023986;28;20106;-66
2022/05/21 10:50:32;;;;;;;12.15;1.98;;;17.60;88.20;;;;;;5024990;28;20026;-67
2022/05/21 10:53:37;;;;;;;10.77;1.75;;;17.70;88.30;;;;;;5011659;28;20037;-68
2022/05/21 10:56:38;;;;;;;9.75;1.50;;;17.50;86.20;;;;;;5026592;28;20048;-68
2022/05/21 10:59:38;;;;;;;14.60;1.90;;;17.60;86.20;;;;;;5016181;28;20021;-68
2022/05/21 11:02:43;;;;;;;8.95;1.77;;;17.60;85.20;;;;;;5031334;28;20053;-67
2022/05/21 11:05:49;;;;;;;13.40;2.30;;;17.80;84.90;;;;;;5028946;28;20021;-68
2022/05/21 11:08:46;;;;;;;11.60;1.85;;;18.20;84.70;;;;;;5032122;28;20021;-68
2022/05/21 11:11:40;;;;;;;10.07;1.80;;;18.50;82.70;;;;;;5057733;28;20021;-68
2022/05/21 11:14:21;;;;;;;11.85;1.52;;;18.40;82.60;;;;;;5044153;28;20024;-67
2022/05/21 11:17:12;;;;;;;9.10;1.77;;;18.50;83.50;;;;;;5058581;28;20044;-67
2022/05/21 11:19:51;;;;;;;14.70;2.20;;;18.60;82.40;;;;;;5043599;28;20021;-68
2022/05/21 11:22:24;;;;;;;11.60;1.98;;;18.70;82.40;;;;;;5052073;28;20261;-67
2022/05/21 11:25:29;;;;;;;8.40;1.52;;;18.90;82.30;;;;;;5030487;28;20037;-67
2022/05/21 11:28:19;;;;;;;8.20;1.40;;;18.90;80.50;;;;;;5034079;28;20305;-67
2022/05/21 11:30:45;;;;;;;6.20;1.40;;;18.90;81.40;;;;;;5044281;28;20389;-68
2022/05/21 11:38:58;;;;;;;9.32;1.80;;;18.60;80.40;;;;;;5029597;28;20020;-68
2022/05/21 11:42:03;;;;;;;8.52;1.27;;;18.60;79.10;;;;;;5031989;28;20247;-68
2022/05/21 11:44:56;;;;;;;8.25;1.55;;;18.60;77.50;;;;;;5012271;28;20201;-68
2022/05/21 11:47:42;;;;;;;11.00;1.70;;;18.90;77.70;;;;;;5022288;28;20017;-68
2022/05/21 11:50:17;;;;;;;9.80;1.90;;;19.20;78.10;;;;;;5022782;28;20061;-68
2022/05/21 11:52:54;;;;;;;12.75;1.95;;;19.20;77.00;;;;;;5023027;28;20048;-66
2022/05/21 11:55:27;;;;;;;8.27;1.70;;;18.90;75.80;;;;;;5023911;28;20022;-68
2022/05/21 11:58:00;;;;;;;7.05;1.67;;;18.80;74.90;;;;;;5022481;28;20332;-67
2022/05/21 12:00:44;;;;;;;10.77;1.80;;;19.00;76.40;;;;;;5005763;28;20347;-67
2022/05/21 12:03:12;;;;;;;8.60;1.55;;;19.10;76.70;;;;;;5023555;28;20056;-67
2022/05/21 12:05:55;;;;;;;8.43;1.80;;;18.90;76.60;;;;;;5032269;28;20252;-67
2022/05/21 12:08:43;;;;;;;11.52;2.30;;;18.80;78.10;;;;;;5042504;28;20018;-67
2022/05/21 12:11:32;;;;;;;6.95;1.48;;;18.80;77.30;;;;;;5034597;28;20025;-67
2022/05/21 12:14:05;;;;;;;5.43;1.10;;;18.70;77.50;;;;;;5008721;28;20038;-68
2022/05/21 12:16:48;;;;;;;8.23;1.80;;;18.80;78.00;;;;;;5023161;28;20045;-68
2022/05/21 12:19:53;;;;;;;7.75;1.50;;;18.80;78.70;;;;;;5022877;28;20045;-68
2022/05/21 12:22:47;;;;;;;7.18;1.50;;;18.90;77.30;;;;;;5025693;28;20049;-67
2022/05/21 12:25:53;;;;;;;10.32;1.80;;;18.90;77.20;;;;;;5022562;28;20057;-67
2022/05/21 12:28:19;;;;;;;5.35;1.42;;;18.90;76.80;;;;;;5025538;28;20029;-67
2022/05/21 12:30:45;;;;;;;8.85;1.33;;;18.90;77.40;;;;;;5038336;28;20097;-68
2022/05/21 12:33:35;;;;;;;7.28;1.60;;;19.00;76.30;;;;;;5022236;28;20219;-67
2022/05/21 12:36:37;;;;;;;6.60;1.20;;;19.10;76.50;;;;;;5022774;28;20034;-67
2022/05/21 12:39:05;;;;;;;7.90;1.50;;;19.10;75.00;;;;;;5025143;28;20268;-68
2022/05/21 12:41:39;;;;;;;8.90;1.80;;;19.10;76.40;;;;;;5014012;28;20077;-68
2022/05/21 12:44:05;;;;;;;8.90;1.60;;;19.10;77.30;;;;;;5007508;28;20060;-68
2022/05/21 12:46:35;;;;;;;8.25;1.60;;;19.10;77.40;;;;;;5005805;28;20018;-66
2022/05/21 12:49:04;;;;;;;6.43;1.58;;;19.20;74.70;;;;;;5005177;28;20041;-68
2022/05/21 12:51:34;;;;;;;8.02;1.52;;;19.30;75.10;;;;;;5006251;28;20029;-68
2022/05/21 12:54:03;;;;;;;8.85;1.40;;;19.30;75.40;;;;;;5022513;28;20023;-68
2022/05/21 12:56:33;;;;;;;7.72;1.42;;;19.30;75.00;;;;;;5006479;28;20026;-67
2022/05/21 12:59:07;;;;;;;8.60;1.83;;;19.20;75.40;;;;;;5006333;28;20034;-67
2022/05/21 13:01:43;;;;;;;6.80;1.40;;;19.10;77.30;;;;;;5005937;28;20416;-67
2022/05/21 13:04:35;;;;;;;6.75;1.20;;;19.00;76.30;;;;;;5005617;28;20030;-67
2022/05/21 13:07:21;;;;;;;6.22;1.35;;;18.90;76.20;;;;;;4986391;28;20313;-68
2022/05/21 13:10:15;;;;;;;5.68;1.48;;;18.80;75.50;;;;;;4987229;28;20094;-66
2022/05/21 13:12:45;;;;;;;5.38;1.10;;;18.90;77.10;;;;;;4987569;28;20034;-67
2022/05/21 13:15:16;;;;;;;7.18;1.85;;;19.00;74.80;;;;;;4987399;28;20026;-68
2022/05/21 13:18:11;;;;;;;5.97;1.33;;;19.10;74.80;;;;;;4986404;28;20090;-68
2022/05/21 13:21:16;;;;;;;7.32;1.60;;;19.30;73.10;;;;;;4986479;28;20054;-68
2022/05/21 13:24:22;;;;;;;5.60;1.23;;;19.50;73.10;;;;;;4972207;28;20058;-65
2022/05/21 13:27:06;;;;;;;6.85;1.30;;;19.50;74.30;;;;;;4986491;28;20033;-68
2022/05/21 13:29:32;;;;;;;7.18;1.38;;;19.60;74.70;;;;;;4969570;28;20022;-68
2022/05/21 13:32:16;;;;;;;7.32;1.50;;;19.70;75.10;;;;;;4986104;28;20037;-68
2022/05/21 13:34:42;;;;;;;7.22;1.38;;;19.80;74.10;;;;;;4986605;28;20237;-68
2022/05/21 13:37:08;;;;;;;9.90;1.20;;;19.80;73.30;;;;;;4985680;28;20034;-67
2022/05/21 13:39:36;;;;;;;8.73;1.00;;;19.80;73.30;;;;;;4987322;28;20046;-67